Главная страница
METAR-TAF:

METAR-TAF

Аэропорты :

Cape Peel West, Нунавут, Канада

широта: 69-02N, долгота: 107-49W, высота над уровнем моря: 165 м

Текущие метеонаблюдения

Эта сводка был подготовлена 55 минут назад, в 09:58 UTC
Ветер 21 Узел от восточно-северо-восточный
Температура -23°C
Влажность 76%
Давление 991 hPa
Рассеянная облачность на высоте 500 фута
Рассеянная облачность на высоте 2800 фута
Рассеянная облачность на высоте 3200 фута

METAR: CWPX 120958Z AUTO 06021KT ////SM //// BKN005 BKN028 BKN032 M23/M26 A2925

Время: 03:53 (10:53 UTC)


TAF: отсутствует

Метеонаблюдения и прогнозы для более 4000 аэропортов (сводки METAR и TAF).

Имеющиеся станции представлены на карте желтыми и красными точками.

Чтобы увидеть название станции, наведите на нее мышь.

Затем щелкните, чтобы увидеть метеонаблюдения и метеопрогнозы.

Управление картой: чтобы увеличить масштаб, щелкните зеленые кнопки с черным крестиком; чтобы уменьшить масштаб, щелкните зеленую кнопку с тире; для просмотра соседних карт щелкайте зеленые стрелки.


METAR-TAF: